sensor_id;sensor_type;location;lat;lon;timestamp;P1;durP1;ratioP1;P2;durP2;ratioP2
59189;SDS011;50749;51.636;4.948;2023-12-29T00:00:05;4.88;;;1.58;;
59189;SDS011;50749;51.636;4.948;2023-12-29T00:02:35;7.35;;;1.20;;
59189;SDS011;50749;51.636;4.948;2023-12-29T00:05:07;4.80;;;1.20;;
59189;SDS011;50749;51.636;4.948;2023-12-29T00:07:36;4.30;;;1.45;;
59189;SDS011;50749;51.636;4.948;2023-12-29T00:10:05;4.50;;;1.05;;
59189;SDS011;50749;51.636;4.948;2023-12-29T00:12:35;4.47;;;1.00;;
59189;SDS011;50749;51.636;4.948;2023-12-29T00:15:04;7.32;;;1.42;;
59189;SDS011;50749;51.636;4.948;2023-12-29T00:17:33;6.40;;;1.48;;
59189;SDS011;50749;51.636;4.948;2023-12-29T00:20:03;9.57;;;1.30;;
59189;SDS011;50749;51.636;4.948;2023-12-29T00:22:35;7.18;;;1.42;;
59189;SDS011;50749;51.636;4.948;2023-12-29T00:25:04;4.80;;;0.93;;
59189;SDS011;50749;51.636;4.948;2023-12-29T00:27:35;6.60;;;1.83;;
59189;SDS011;50749;51.636;4.948;2023-12-29T00:30:04;2.55;;;1.30;;
59189;SDS011;50749;51.636;4.948;2023-12-29T00:32:34;6.43;;;1.55;;
59189;SDS011;50749;51.636;4.948;2023-12-29T00:35:03;5.20;;;1.13;;
59189;SDS011;50749;51.636;4.948;2023-12-29T00:37:33;4.63;;;1.10;;
59189;SDS011;50749;51.636;4.948;2023-12-29T00:40:04;4.18;;;1.42;;
59189;SDS011;50749;51.636;4.948;2023-12-29T00:42:35;3.88;;;1.10;;
59189;SDS011;50749;51.636;4.948;2023-12-29T00:45:04;4.63;;;1.00;;
59189;SDS011;50749;51.636;4.948;2023-12-29T00:47:34;3.20;;;1.15;;
59189;SDS011;50749;51.636;4.948;2023-12-29T00:50:03;7.15;;;1.48;;
59189;SDS011;50749;51.636;4.948;2023-12-29T00:52:32;7.53;;;1.48;;
59189;SDS011;50749;51.636;4.948;2023-12-29T00:55:04;4.22;;;1.30;;
59189;SDS011;50749;51.636;4.948;2023-12-29T00:57:34;7.82;;;1.42;;
59189;SDS011;50749;51.636;4.948;2023-12-29T01:00:03;8.20;;;1.23;;
59189;SDS011;50749;51.636;4.948;2023-12-29T01:02:33;4.53;;;1.20;;
59189;SDS011;50749;51.636;4.948;2023-12-29T01:05:01;5.40;;;1.17;;
59189;SDS011;50749;51.636;4.948;2023-12-29T01:07:30;7.93;;;1.33;;
59189;SDS011;50749;51.636;4.948;2023-12-29T01:09:59;3.78;;;1.00;;
59189;SDS011;50749;51.636;4.948;2023-12-29T01:12:30;8.65;;;1.13;;
59189;SDS011;50749;51.636;4.948;2023-12-29T01:14:59;4.38;;;1.10;;
59189;SDS011;50749;51.636;4.948;2023-12-29T01:17:28;7.63;;;1.33;;
59189;SDS011;50749;51.636;4.948;2023-12-29T01:19:56;5.35;;;1.10;;
59189;SDS011;50749;51.636;4.948;2023-12-29T01:22:25;4.95;;;1.23;;
59189;SDS011;50749;51.636;4.948;2023-12-29T01:24:54;4.53;;;1.83;;
59189;SDS011;50749;51.636;4.948;2023-12-29T01:27:23;4.47;;;0.80;;
59189;SDS011;50749;51.636;4.948;2023-12-29T01:29:54;4.63;;;1.40;;
59189;SDS011;50749;51.636;4.948;2023-12-29T01:32:23;3.92;;;1.77;;
59189;SDS011;50749;51.636;4.948;2023-12-29T01:34:52;4.18;;;1.10;;
59189;SDS011;50749;51.636;4.948;2023-12-29T01:37:21;6.18;;;0.85;;
59189;SDS011;50749;51.636;4.948;2023-12-29T01:39:49;5.43;;;1.35;;
59189;SDS011;50749;51.636;4.948;2023-12-29T01:42:18;6.28;;;1.02;;
59189;SDS011;50749;51.636;4.948;2023-12-29T01:44:47;6.07;;;1.52;;
59189;SDS011;50749;51.636;4.948;2023-12-29T01:47:22;3.67;;;1.10;;
59189;SDS011;50749;51.636;4.948;2023-12-29T01:49:51;5.10;;;1.75;;
59189;SDS011;50749;51.636;4.948;2023-12-29T01:52:20;6.10;;;1.35;;
59189;SDS011;50749;51.636;4.948;2023-12-29T01:54:49;4.70;;;1.20;;
59189;SDS011;50749;51.636;4.948;2023-12-29T01:57:20;4.90;;;0.82;;
59189;SDS011;50749;51.636;4.948;2023-12-29T01:59:49;5.53;;;1.30;;
59189;SDS011;50749;51.636;4.948;2023-12-29T02:02:18;6.10;;;1.42;;
59189;SDS011;50749;51.636;4.948;2023-12-29T02:04:49;6.07;;;1.38;;
59189;SDS011;50749;51.636;4.948;2023-12-29T02:07:18;5.15;;;1.42;;
59189;SDS011;50749;51.636;4.948;2023-12-29T02:09:47;6.68;;;1.30;;
59189;SDS011;50749;51.636;4.948;2023-12-29T02:12:17;3.03;;;0.95;;
59189;SDS011;50749;51.636;4.948;2023-12-29T02:14:46;8.07;;;1.05;;
59189;SDS011;50749;51.636;4.948;2023-12-29T02:17:16;4.95;;;1.20;;
59189;SDS011;50749;51.636;4.948;2023-12-29T02:19:53;3.55;;;1.38;;
59189;SDS011;50749;51.636;4.948;2023-12-29T02:22:22;4.95;;;1.52;;
59189;SDS011;50749;51.636;4.948;2023-12-29T02:24:54;6.72;;;1.40;;
59189;SDS011;50749;51.636;4.948;2023-12-29T02:27:24;7.45;;;1.30;;
59189;SDS011;50749;51.636;4.948;2023-12-29T02:30:05;3.30;;;0.82;;
59189;SDS011;50749;51.636;4.948;2023-12-29T02:32:38;4.70;;;1.00;;
59189;SDS011;50749;51.636;4.948;2023-12-29T02:35:09;3.95;;;1.08;;
59189;SDS011;50749;51.636;4.948;2023-12-29T02:37:40;4.10;;;1.30;;
59189;SDS011;50749;51.636;4.948;2023-12-29T02:40:12;4.22;;;1.10;;
59189;SDS011;50749;51.636;4.948;2023-12-29T02:42:46;3.00;;;0.90;;
59189;SDS011;50749;51.636;4.948;2023-12-29T02:45:15;5.38;;;1.17;;
59189;SDS011;50749;51.636;4.948;2023-12-29T02:47:44;8.68;;;1.85;;
59189;SDS011;50749;51.636;4.948;2023-12-29T02:50:14;4.78;;;1.50;;
59189;SDS011;50749;51.636;4.948;2023-12-29T02:52:43;6.30;;;2.47;;
59189;SDS011;50749;51.636;4.948;2023-12-29T02:55:14;3.35;;;1.10;;
59189;SDS011;50749;51.636;4.948;2023-12-29T02:57:43;5.35;;;1.55;;
59189;SDS011;50749;51.636;4.948;2023-12-29T03:00:12;5.50;;;1.45;;
59189;SDS011;50749;51.636;4.948;2023-12-29T03:02:41;5.55;;;1.15;;
59189;SDS011;50749;51.636;4.948;2023-12-29T03:05:11;5.20;;;2.00;;
59189;SDS011;50749;51.636;4.948;2023-12-29T03:07:40;4.97;;;0.77;;
59189;SDS011;50749;51.636;4.948;2023-12-29T03:10:09;3.60;;;0.88;;
59189;SDS011;50749;51.636;4.948;2023-12-29T03:12:40;6.38;;;1.42;;
59189;SDS011;50749;51.636;4.948;2023-12-29T03:15:09;7.32;;;1.25;;
59189;SDS011;50749;51.636;4.948;2023-12-29T03:17:38;4.35;;;1.63;;
59189;SDS011;50749;51.636;4.948;2023-12-29T03:20:07;7.65;;;2.10;;
59189;SDS011;50749;51.636;4.948;2023-12-29T03:22:36;4.50;;;0.93;;
59189;SDS011;50749;51.636;4.948;2023-12-29T03:25:05;5.30;;;2.38;;
59189;SDS011;50749;51.636;4.948;2023-12-29T03:27:35;6.85;;;1.30;;
59189;SDS011;50749;51.636;4.948;2023-12-29T03:30:06;7.43;;;1.63;;
59189;SDS011;50749;51.636;4.948;2023-12-29T03:32:36;4.85;;;1.23;;
59189;SDS011;50749;51.636;4.948;2023-12-29T03:35:05;6.47;;;1.23;;
59189;SDS011;50749;51.636;4.948;2023-12-29T03:37:34;8.27;;;1.73;;
59189;SDS011;50749;51.636;4.948;2023-12-29T03:40:03;7.32;;;1.17;;
59189;SDS011;50749;51.636;4.948;2023-12-29T03:42:33;5.28;;;1.40;;
59189;SDS011;50749;51.636;4.948;2023-12-29T03:45:02;6.35;;;1.65;;
59189;SDS011;50749;51.636;4.948;2023-12-29T03:47:34;6.13;;;1.35;;
59189;SDS011;50749;51.636;4.948;2023-12-29T03:50:03;7.82;;;1.40;;
59189;SDS011;50749;51.636;4.948;2023-12-29T03:52:32;4.82;;;1.30;;
59189;SDS011;50749;51.636;4.948;2023-12-29T03:55:01;2.90;;;1.10;;
59189;SDS011;50749;51.636;4.948;2023-12-29T03:57:30;5.40;;;1.23;;
59189;SDS011;50749;51.636;4.948;2023-12-29T03:59:58;6.75;;;1.23;;
59189;SDS011;50749;51.636;4.948;2023-12-29T04:02:27;7.97;;;1.90;;
59189;SDS011;50749;51.636;4.948;2023-12-29T04:04:58;6.35;;;1.00;;
59189;SDS011;50749;51.636;4.948;2023-12-29T04:07:27;5.53;;;1.10;;
59189;SDS011;50749;51.636;4.948;2023-12-29T04:09:56;8.10;;;1.20;;
59189;SDS011;50749;51.636;4.948;2023-12-29T04:12:25;4.80;;;1.30;;
59189;SDS011;50749;51.636;4.948;2023-12-29T04:14:54;6.00;;;1.10;;
59189;SDS011;50749;51.636;4.948;2023-12-29T04:17:22;5.00;;;0.90;;
59189;SDS011;50749;51.636;4.948;2023-12-29T04:19:51;7.22;;;1.77;;
59189;SDS011;50749;51.636;4.948;2023-12-29T04:22:23;3.42;;;1.00;;
59189;SDS011;50749;51.636;4.948;2023-12-29T04:24:51;3.97;;;1.05;;
59189;SDS011;50749;51.636;4.948;2023-12-29T04:27:20;4.85;;;1.10;;
59189;SDS011;50749;51.636;4.948;2023-12-29T04:29:49;3.13;;;0.80;;
59189;SDS011;50749;51.636;4.948;2023-12-29T04:32:18;6.80;;;0.70;;
59189;SDS011;50749;51.636;4.948;2023-12-29T04:34:47;6.72;;;1.27;;
59189;SDS011;50749;51.636;4.948;2023-12-29T04:37:15;5.05;;;1.33;;
59189;SDS011;50749;51.636;4.948;2023-12-29T04:39:47;4.70;;;0.90;;
59189;SDS011;50749;51.636;4.948;2023-12-29T04:42:15;6.65;;;1.00;;
59189;SDS011;50749;51.636;4.948;2023-12-29T04:44:45;5.70;;;1.20;;
59189;SDS011;50749;51.636;4.948;2023-12-29T04:47:13;8.40;;;1.30;;
59189;SDS011;50749;51.636;4.948;2023-12-29T04:49:42;3.90;;;0.80;;
59189;SDS011;50749;51.636;4.948;2023-12-29T04:52:11;6.60;;;1.70;;
59189;SDS011;50749;51.636;4.948;2023-12-29T04:54:39;3.53;;;1.10;;
59189;SDS011;50749;51.636;4.948;2023-12-29T04:57:11;4.35;;;0.77;;
59189;SDS011;50749;51.636;4.948;2023-12-29T04:59:40;5.80;;;1.40;;
59189;SDS011;50749;51.636;4.948;2023-12-29T05:02:09;5.75;;;1.27;;
59189;SDS011;50749;51.636;4.948;2023-12-29T05:04:37;8.85;;;1.42;;
59189;SDS011;50749;51.636;4.948;2023-12-29T05:07:08;7.13;;;1.42;;
59189;SDS011;50749;51.636;4.948;2023-12-29T05:09:37;3.22;;;0.80;;
59189;SDS011;50749;51.636;4.948;2023-12-29T05:12:06;4.97;;;1.27;;
59189;SDS011;50749;51.636;4.948;2023-12-29T05:14:37;3.95;;;0.85;;
59189;SDS011;50749;51.636;4.948;2023-12-29T05:17:06;4.20;;;1.30;;
59189;SDS011;50749;51.636;4.948;2023-12-29T05:19:35;6.25;;;1.13;;
59189;SDS011;50749;51.636;4.948;2023-12-29T05:22:04;7.65;;;1.45;;
59189;SDS011;50749;51.636;4.948;2023-12-29T05:24:32;6.22;;;0.90;;
59189;SDS011;50749;51.636;4.948;2023-12-29T05:27:01;6.55;;;1.75;;
59189;SDS011;50749;51.636;4.948;2023-12-29T05:29:30;8.95;;;1.27;;
59189;SDS011;50749;51.636;4.948;2023-12-29T05:32:02;2.58;;;1.08;;
59189;SDS011;50749;51.636;4.948;2023-12-29T05:34:31;1.98;;;0.82;;
59189;SDS011;50749;51.636;4.948;2023-12-29T05:37:00;5.57;;;1.17;;
59189;SDS011;50749;51.636;4.948;2023-12-29T05:39:28;4.05;;;1.20;;
59189;SDS011;50749;51.636;4.948;2023-12-29T05:41:57;4.15;;;1.00;;
59189;SDS011;50749;51.636;4.948;2023-12-29T05:44:26;2.53;;;0.80;;
59189;SDS011;50749;51.636;4.948;2023-12-29T05:46:55;6.72;;;1.52;;
59189;SDS011;50749;51.636;4.948;2023-12-29T05:49:27;7.18;;;1.23;;
59189;SDS011;50749;51.636;4.948;2023-12-29T05:51:57;3.08;;;1.00;;
59189;SDS011;50749;51.636;4.948;2023-12-29T05:54:26;4.22;;;1.25;;
59189;SDS011;50749;51.636;4.948;2023-12-29T05:56:55;3.65;;;0.98;;
59189;SDS011;50749;51.636;4.948;2023-12-29T05:59:24;3.53;;;0.90;;
59189;SDS011;50749;51.636;4.948;2023-12-29T06:01:53;3.67;;;0.95;;
59189;SDS011;50749;51.636;4.948;2023-12-29T06:04:21;3.70;;;0.90;;
59189;SDS011;50749;51.636;4.948;2023-12-29T06:06:53;4.57;;;1.00;;
59189;SDS011;50749;51.636;4.948;2023-12-29T06:09:22;2.63;;;1.25;;
59189;SDS011;50749;51.636;4.948;2023-12-29T06:11:51;5.13;;;0.80;;
59189;SDS011;50749;51.636;4.948;2023-12-29T06:14:20;3.17;;;0.75;;
59189;SDS011;50749;51.636;4.948;2023-12-29T06:16:49;4.47;;;1.20;;
59189;SDS011;50749;51.636;4.948;2023-12-29T06:19:17;3.17;;;0.85;;
59189;SDS011;50749;51.636;4.948;2023-12-29T06:21:46;5.32;;;1.02;;
59189;SDS011;50749;51.636;4.948;2023-12-29T06:24:18;7.25;;;1.17;;
59189;SDS011;50749;51.636;4.948;2023-12-29T06:26:47;2.30;;;0.98;;
59189;SDS011;50749;51.636;4.948;2023-12-29T06:29:16;3.47;;;0.88;;
59189;SDS011;50749;51.636;4.948;2023-12-29T06:31:45;4.00;;;0.75;;
59189;SDS011;50749;51.636;4.948;2023-12-29T06:34:13;3.13;;;0.93;;
59189;SDS011;50749;51.636;4.948;2023-12-29T06:36:42;5.40;;;1.20;;
59189;SDS011;50749;51.636;4.948;2023-12-29T06:39:11;3.05;;;0.82;;
59189;SDS011;50749;51.636;4.948;2023-12-29T06:41:43;5.53;;;1.10;;
59189;SDS011;50749;51.636;4.948;2023-12-29T06:44:11;5.20;;;0.80;;
59189;SDS011;50749;51.636;4.948;2023-12-29T06:46:41;2.30;;;0.82;;
59189;SDS011;50749;51.636;4.948;2023-12-29T06:49:10;3.35;;;0.73;;
59189;SDS011;50749;51.636;4.948;2023-12-29T06:51:39;1.95;;;0.70;;
59189;SDS011;50749;51.636;4.948;2023-12-29T06:54:08;5.45;;;1.13;;
59189;SDS011;50749;51.636;4.948;2023-12-29T06:56:37;5.88;;;1.23;;
59189;SDS011;50749;51.636;4.948;2023-12-29T06:59:08;2.70;;;0.80;;
59189;SDS011;50749;51.636;4.948;2023-12-29T07:01:38;2.80;;;0.60;;
59189;SDS011;50749;51.636;4.948;2023-12-29T07:04:08;6.13;;;1.65;;
59189;SDS011;50749;51.636;4.948;2023-12-29T07:06:38;2.83;;;0.77;;
59189;SDS011;50749;51.636;4.948;2023-12-29T07:09:07;4.00;;;0.90;;
59189;SDS011;50749;51.636;4.948;2023-12-29T07:11:36;3.97;;;1.00;;
59189;SDS011;50749;51.636;4.948;2023-12-29T07:14:05;2.03;;;0.35;;
59189;SDS011;50749;51.636;4.948;2023-12-29T07:16:36;4.70;;;0.80;;
59189;SDS011;50749;51.636;4.948;2023-12-29T07:19:05;2.25;;;0.68;;
59189;SDS011;50749;51.636;4.948;2023-12-29T07:21:34;2.53;;;0.57;;
59189;SDS011;50749;51.636;4.948;2023-12-29T07:24:03;4.28;;;0.80;;
59189;SDS011;50749;51.636;4.948;2023-12-29T07:26:32;1.90;;;0.75;;
59189;SDS011;50749;51.636;4.948;2023-12-29T07:29:01;4.50;;;0.77;;
59189;SDS011;50749;51.636;4.948;2023-12-29T07:31:31;3.50;;;0.98;;
59189;SDS011;50749;51.636;4.948;2023-12-29T07:34:02;4.55;;;0.80;;
59189;SDS011;50749;51.636;4.948;2023-12-29T07:36:32;4.18;;;0.75;;
59189;SDS011;50749;51.636;4.948;2023-12-29T07:39:00;4.25;;;0.93;;
59189;SDS011;50749;51.636;4.948;2023-12-29T07:41:30;2.40;;;0.57;;
59189;SDS011;50749;51.636;4.948;2023-12-29T07:43:58;1.10;;;0.47;;
59189;SDS011;50749;51.636;4.948;2023-12-29T07:46:27;2.97;;;0.50;;
59189;SDS011;50749;51.636;4.948;2023-12-29T07:48:57;2.35;;;1.00;;
59189;SDS011;50749;51.636;4.948;2023-12-29T07:51:29;3.17;;;0.93;;
59189;SDS011;50749;51.636;4.948;2023-12-29T07:53:58;3.10;;;0.98;;
59189;SDS011;50749;51.636;4.948;2023-12-29T07:56:27;3.03;;;0.88;;
59189;SDS011;50749;51.636;4.948;2023-12-29T07:58:55;1.73;;;0.73;;
59189;SDS011;50749;51.636;4.948;2023-12-29T08:01:25;3.45;;;0.60;;
59189;SDS011;50749;51.636;4.948;2023-12-29T08:03:53;2.78;;;0.70;;
59189;SDS011;50749;51.636;4.948;2023-12-29T08:06:22;3.63;;;0.82;;
59189;SDS011;50749;51.636;4.948;2023-12-29T08:08:53;2.92;;;0.60;;
59189;SDS011;50749;51.636;4.948;2023-12-29T08:11:22;1.77;;;0.65;;
59189;SDS011;50749;51.636;4.948;2023-12-29T08:13:51;2.83;;;0.70;;
59189;SDS011;50749;51.636;4.948;2023-12-29T08:16:21;3.10;;;0.85;;
59189;SDS011;50749;51.636;4.948;2023-12-29T08:18:49;2.70;;;0.80;;
59189;SDS011;50749;51.636;4.948;2023-12-29T08:21:18;4.63;;;0.98;;
59189;SDS011;50749;51.636;4.948;2023-12-29T08:23:47;4.00;;;0.90;;
59189;SDS011;50749;51.636;4.948;2023-12-29T08:26:19;2.20;;;0.70;;
59189;SDS011;50749;51.636;4.948;2023-12-29T08:28:48;3.10;;;0.63;;
59189;SDS011;50749;51.636;4.948;2023-12-29T08:31:17;2.75;;;0.80;;
59189;SDS011;50749;51.636;4.948;2023-12-29T08:33:47;4.07;;;0.60;;
59189;SDS011;50749;51.636;4.948;2023-12-29T08:36:18;1.40;;;0.40;;
59189;SDS011;50749;51.636;4.948;2023-12-29T08:38:48;3.58;;;0.75;;
59189;SDS011;50749;51.636;4.948;2023-12-29T08:41:21;2.42;;;0.50;;
59189;SDS011;50749;51.636;4.948;2023-12-29T08:43:49;2.53;;;0.55;;
59189;SDS011;50749;51.636;4.948;2023-12-29T08:46:19;3.05;;;0.50;;
59189;SDS011;50749;51.636;4.948;2023-12-29T08:48:48;1.38;;;0.47;;
59189;SDS011;50749;51.636;4.948;2023-12-29T08:51:16;3.50;;;0.85;;
59189;SDS011;50749;51.636;4.948;2023-12-29T08:53:45;3.10;;;0.88;;
59189;SDS011;50749;51.636;4.948;2023-12-29T08:56:14;2.05;;;0.40;;
59189;SDS011;50749;51.636;4.948;2023-12-29T08:58:45;4.53;;;0.73;;
59189;SDS011;50749;51.636;4.948;2023-12-29T09:01:14;2.85;;;0.90;;
59189;SDS011;50749;51.636;4.948;2023-12-29T09:03:42;2.38;;;0.60;;
59189;SDS011;50749;51.636;4.948;2023-12-29T09:06:11;1.08;;;0.30;;
59189;SDS011;50749;51.636;4.948;2023-12-29T09:08:41;2.53;;;0.70;;
59189;SDS011;50749;51.636;4.948;2023-12-29T09:11:10;2.90;;;0.65;;
59189;SDS011;50749;51.636;4.948;2023-12-29T09:13:38;2.70;;;1.02;;
59189;SDS011;50749;51.636;4.948;2023-12-29T09:16:10;1.70;;;0.70;;
59189;SDS011;50749;51.636;4.948;2023-12-29T09:18:38;1.25;;;0.60;;
59189;SDS011;50749;51.636;4.948;2023-12-29T09:21:07;2.13;;;0.57;;
59189;SDS011;50749;51.636;4.948;2023-12-29T09:23:37;1.60;;;0.70;;
59189;SDS011;50749;51.636;4.948;2023-12-29T09:26:07;2.03;;;0.40;;
59189;SDS011;50749;51.636;4.948;2023-12-29T09:28:35;4.25;;;0.68;;
59189;SDS011;50749;51.636;4.948;2023-12-29T09:31:04;1.65;;;0.50;;
59189;SDS011;50749;51.636;4.948;2023-12-29T09:33:35;1.42;;;0.70;;
59189;SDS011;50749;51.636;4.948;2023-12-29T09:36:05;1.75;;;0.68;;
59189;SDS011;50749;51.636;4.948;2023-12-29T09:38:34;2.28;;;0.50;;
59189;SDS011;50749;51.636;4.948;2023-12-29T09:41:04;3.63;;;0.88;;
59189;SDS011;50749;51.636;4.948;2023-12-29T09:43:37;1.95;;;0.70;;
59189;SDS011;50749;51.636;4.948;2023-12-29T09:46:08;1.25;;;0.50;;
59189;SDS011;50749;51.636;4.948;2023-12-29T09:48:40;1.67;;;0.50;;
59189;SDS011;50749;51.636;4.948;2023-12-29T09:51:13;2.80;;;0.75;;
59189;SDS011;50749;51.636;4.948;2023-12-29T09:53:47;2.20;;;0.60;;
59189;SDS011;50749;51.636;4.948;2023-12-29T09:56:17;0.77;;;0.30;;
59189;SDS011;50749;51.636;4.948;2023-12-29T09:58:47;1.40;;;0.50;;
59189;SDS011;50749;51.636;4.948;2023-12-29T10:01:17;2.70;;;0.40;;
59189;SDS011;50749;51.636;4.948;2023-12-29T10:03:49;0.95;;;0.35;;
59189;SDS011;50749;51.636;4.948;2023-12-29T10:06:19;1.25;;;0.30;;
59189;SDS011;50749;51.636;4.948;2023-12-29T10:08:51;1.15;;;0.38;;
59189;SDS011;50749;51.636;4.948;2023-12-29T10:11:21;1.13;;;0.60;;
59189;SDS011;50749;51.636;4.948;2023-12-29T10:13:50;0.98;;;0.50;;
59189;SDS011;50749;51.636;4.948;2023-12-29T10:16:24;0.85;;;0.32;;
59189;SDS011;50749;51.636;4.948;2023-12-29T10:19:02;1.90;;;0.50;;
59189;SDS011;50749;51.636;4.948;2023-12-29T10:21:40;0.95;;;0.50;;
59189;SDS011;50749;51.636;4.948;2023-12-29T10:24:16;1.10;;;0.60;;
59189;SDS011;50749;51.636;4.948;2023-12-29T10:26:47;1.98;;;0.80;;
59189;SDS011;50749;51.636;4.948;2023-12-29T10:29:18;1.65;;;0.50;;
59189;SDS011;50749;51.636;4.948;2023-12-29T10:31:47;1.52;;;0.50;;
59189;SDS011;50749;51.636;4.948;2023-12-29T10:34:19;0.93;;;0.43;;
59189;SDS011;50749;51.636;4.948;2023-12-29T10:36:54;1.40;;;0.40;;
59189;SDS011;50749;51.636;4.948;2023-12-29T10:39:23;1.23;;;0.40;;
59189;SDS011;50749;51.636;4.948;2023-12-29T10:42:02;2.63;;;0.73;;
59189;SDS011;50749;51.636;4.948;2023-12-29T10:44:33;1.00;;;0.40;;
59189;SDS011;50749;51.636;4.948;2023-12-29T10:47:09;1.00;;;0.50;;
59189;SDS011;50749;51.636;4.948;2023-12-29T10:49:41;1.08;;;0.20;;
59189;SDS011;50749;51.636;4.948;2023-12-29T10:52:10;2.30;;;0.77;;
59189;SDS011;50749;51.636;4.948;2023-12-29T10:54:40;2.08;;;0.57;;
59189;SDS011;50749;51.636;4.948;2023-12-29T10:57:09;1.67;;;0.35;;
59189;SDS011;50749;51.636;4.948;2023-12-29T10:59:40;2.90;;;0.57;;
59189;SDS011;50749;51.636;4.948;2023-12-29T11:02:11;4.57;;;0.60;;
59189;SDS011;50749;51.636;4.948;2023-12-29T11:04:45;2.65;;;0.90;;
59189;SDS011;50749;51.636;4.948;2023-12-29T11:07:16;1.70;;;0.60;;
59189;SDS011;50749;51.636;4.948;2023-12-29T11:10:00;2.13;;;0.52;;
59189;SDS011;50749;51.636;4.948;2023-12-29T11:12:30;2.92;;;0.70;;
59189;SDS011;50749;51.636;4.948;2023-12-29T11:15:01;19.55;;;7.03;;
59189;SDS011;50749;51.636;4.948;2023-12-29T11:17:33;33.00;;;12.10;;
59189;SDS011;50749;51.636;4.948;2023-12-29T11:20:05;35.15;;;11.90;;
59189;SDS011;50749;51.636;4.948;2023-12-29T11:22:34;25.45;;;10.05;;
59189;SDS011;50749;51.636;4.948;2023-12-29T11:25:03;19.00;;;8.35;;
59189;SDS011;50749;51.636;4.948;2023-12-29T11:27:34;28.05;;;9.20;;
59189;SDS011;50749;51.636;4.948;2023-12-29T11:30:04;16.83;;;9.52;;
59189;SDS011;50749;51.636;4.948;2023-12-29T11:32:37;28.92;;;8.57;;
59189;SDS011;50749;51.636;4.948;2023-12-29T11:35:13;16.75;;;7.72;;
59189;SDS011;50749;51.636;4.948;2023-12-29T11:37:59;25.40;;;8.32;;
59189;SDS011;50749;51.636;4.948;2023-12-29T11:40:42;20.77;;;7.53;;
59189;SDS011;50749;51.636;4.948;2023-12-29T11:43:17;17.27;;;7.32;;
59189;SDS011;50749;51.636;4.948;2023-12-29T11:45:46;17.95;;;6.70;;
59189;SDS011;50749;51.636;4.948;2023-12-29T11:48:53;16.38;;;6.78;;
59189;SDS011;50749;51.636;4.948;2023-12-29T11:51:31;19.10;;;6.40;;
59189;SDS011;50749;51.636;4.948;2023-12-29T11:54:02;14.38;;;5.38;;
59189;SDS011;50749;51.636;4.948;2023-12-29T11:56:33;15.13;;;5.43;;
59189;SDS011;50749;51.636;4.948;2023-12-29T12:01:50;16.58;;;6.13;;
59189;SDS011;50749;51.636;4.948;2023-12-29T12:09:41;11.10;;;4.32;;
59189;SDS011;50749;51.636;4.948;2023-12-29T12:12:14;11.70;;;4.63;;
59189;SDS011;50749;51.636;4.948;2023-12-29T12:15:03;15.20;;;4.68;;
59189;SDS011;50749;51.636;4.948;2023-12-29T12:17:54;8.75;;;3.70;;
59189;SDS011;50749;51.636;4.948;2023-12-29T12:20:24;9.48;;;3.60;;
59189;SDS011;50749;51.636;4.948;2023-12-29T12:22:58;10.18;;;4.25;;
59189;SDS011;50749;51.636;4.948;2023-12-29T12:25:29;9.32;;;3.03;;
59189;SDS011;50749;51.636;4.948;2023-12-29T12:28:00;7.53;;;2.75;;
59189;SDS011;50749;51.636;4.948;2023-12-29T12:30:29;6.60;;;2.95;;
59189;SDS011;50749;51.636;4.948;2023-12-29T12:32:59;8.43;;;2.72;;
59189;SDS011;50749;51.636;4.948;2023-12-29T12:35:29;11.18;;;3.58;;
59189;SDS011;50749;51.636;4.948;2023-12-29T12:38:10;7.97;;;3.10;;
59189;SDS011;50749;51.636;4.948;2023-12-29T12:40:39;10.80;;;3.22;;
59189;SDS011;50749;51.636;4.948;2023-12-29T12:43:11;7.30;;;2.53;;
59189;SDS011;50749;51.636;4.948;2023-12-29T12:45:42;10.13;;;3.10;;
59189;SDS011;50749;51.636;4.948;2023-12-29T12:48:19;9.40;;;2.33;;
59189;SDS011;50749;51.636;4.948;2023-12-29T12:50:51;7.85;;;2.88;;
59189;SDS011;50749;51.636;4.948;2023-12-29T12:53:24;4.88;;;2.85;;
59189;SDS011;50749;51.636;4.948;2023-12-29T12:55:54;5.75;;;2.30;;
59189;SDS011;50749;51.636;4.948;2023-12-29T12:58:23;10.50;;;3.10;;
59189;SDS011;50749;51.636;4.948;2023-12-29T13:00:54;7.18;;;2.45;;
59189;SDS011;50749;51.636;4.948;2023-12-29T13:03:25;7.22;;;2.20;;
59189;SDS011;50749;51.636;4.948;2023-12-29T13:05:55;7.10;;;1.80;;
59189;SDS011;50749;51.636;4.948;2023-12-29T13:08:27;8.95;;;2.40;;
59189;SDS011;50749;51.636;4.948;2023-12-29T13:10:56;9.50;;;2.10;;
59189;SDS011;50749;51.636;4.948;2023-12-29T13:13:34;9.35;;;2.15;;
59189;SDS011;50749;51.636;4.948;2023-12-29T13:16:04;4.88;;;2.40;;
59189;SDS011;50749;51.636;4.948;2023-12-29T13:18:33;4.38;;;2.00;;
59189;SDS011;50749;51.636;4.948;2023-12-29T13:21:03;7.53;;;1.77;;
59189;SDS011;50749;51.636;4.948;2023-12-29T13:23:34;6.78;;;2.13;;
59189;SDS011;50749;51.636;4.948;2023-12-29T13:26:04;6.15;;;2.20;;
59189;SDS011;50749;51.636;4.948;2023-12-29T13:28:35;7.28;;;1.60;;
59189;SDS011;50749;51.636;4.948;2023-12-29T13:31:04;3.97;;;1.67;;
59189;SDS011;50749;51.636;4.948;2023-12-29T13:33:37;3.85;;;1.50;;
59189;SDS011;50749;51.636;4.948;2023-12-29T13:36:18;3.83;;;1.58;;
59189;SDS011;50749;51.636;4.948;2023-12-29T13:38:55;5.90;;;2.28;;
59189;SDS011;50749;51.636;4.948;2023-12-29T13:41:27;4.63;;;1.60;;
59189;SDS011;50749;51.636;4.948;2023-12-29T13:43:57;3.42;;;1.83;;
59189;SDS011;50749;51.636;4.948;2023-12-29T13:46:28;4.40;;;1.63;;
59189;SDS011;50749;51.636;4.948;2023-12-29T13:48:57;6.03;;;1.95;;
59189;SDS011;50749;51.636;4.948;2023-12-29T13:51:27;5.57;;;1.90;;
59189;SDS011;50749;51.636;4.948;2023-12-29T13:54:01;3.78;;;1.50;;
59189;SDS011;50749;51.636;4.948;2023-12-29T13:56:31;3.00;;;1.65;;
59189;SDS011;50749;51.636;4.948;2023-12-29T13:59:00;2.10;;;1.02;;
59189;SDS011;50749;51.636;4.948;2023-12-29T14:01:35;5.22;;;1.40;;
59189;SDS011;50749;51.636;4.948;2023-12-29T14:04:06;3.83;;;1.20;;
59189;SDS011;50749;51.636;4.948;2023-12-29T14:06:38;3.85;;;1.50;;
59189;SDS011;50749;51.636;4.948;2023-12-29T14:09:16;3.22;;;1.58;;
59189;SDS011;50749;51.636;4.948;2023-12-29T14:11:46;3.85;;;1.23;;
59189;SDS011;50749;51.636;4.948;2023-12-29T14:14:21;3.90;;;1.60;;
59189;SDS011;50749;51.636;4.948;2023-12-29T14:16:50;4.05;;;1.30;;
59189;SDS011;50749;51.636;4.948;2023-12-29T14:19:20;1.55;;;1.00;;
59189;SDS011;50749;51.636;4.948;2023-12-29T14:21:49;7.03;;;1.30;;
59189;SDS011;50749;51.636;4.948;2023-12-29T14:24:23;3.67;;;1.17;;
59189;SDS011;50749;51.636;4.948;2023-12-29T14:26:55;4.68;;;1.33;;
59189;SDS011;50749;51.636;4.948;2023-12-29T14:29:25;2.30;;;0.98;;
59189;SDS011;50749;51.636;4.948;2023-12-29T14:31:54;2.67;;;1.10;;
59189;SDS011;50749;51.636;4.948;2023-12-29T14:34:25;3.67;;;0.93;;
59189;SDS011;50749;51.636;4.948;2023-12-29T14:36:54;2.92;;;1.23;;
59189;SDS011;50749;51.636;4.948;2023-12-29T14:39:25;4.82;;;1.45;;
59189;SDS011;50749;51.636;4.948;2023-12-29T14:41:54;2.92;;;0.75;;
59189;SDS011;50749;51.636;4.948;2023-12-29T14:44:22;3.20;;;1.45;;
59189;SDS011;50749;51.636;4.948;2023-12-29T14:46:52;4.20;;;1.45;;
59189;SDS011;50749;51.636;4.948;2023-12-29T14:49:20;3.17;;;1.30;;
59189;SDS011;50749;51.636;4.948;2023-12-29T14:51:50;3.90;;;1.10;;
59189;SDS011;50749;51.636;4.948;2023-12-29T14:54:18;3.25;;;1.40;;
59189;SDS011;50749;51.636;4.948;2023-12-29T14:56:50;4.72;;;0.88;;
59189;SDS011;50749;51.636;4.948;2023-12-29T14:59:20;2.50;;;1.10;;
59189;SDS011;50749;51.636;4.948;2023-12-29T15:01:49;2.85;;;0.88;;
59189;SDS011;50749;51.636;4.948;2023-12-29T15:04:17;3.53;;;1.17;;
59189;SDS011;50749;51.636;4.948;2023-12-29T15:06:47;2.05;;;1.00;;
59189;SDS011;50749;51.636;4.948;2023-12-29T15:09:16;4.70;;;1.13;;
59189;SDS011;50749;51.636;4.948;2023-12-29T15:11:46;2.38;;;0.95;;